sensor_id;sensor_type;location;lat;lon;timestamp;pressure;altitude;pressure_sealevel;temperature;humidity
76632;BME280;65526;48.578;-4.520;2023-05-07T00:01:09;101112.78;;;12.11;96.47
76632;BME280;65526;48.578;-4.520;2023-05-07T00:03:37;101346.75;;;13.72;97.06
76632;BME280;65526;48.578;-4.520;2023-05-07T00:06:03;100908.94;;;10.92;96.58
76632;BME280;65526;48.578;-4.520;2023-05-07T00:08:30;101340.34;;;13.72;96.67
76632;BME280;65526;48.578;-4.520;2023-05-07T00:10:56;101326.88;;;13.62;96.64
76632;BME280;65526;48.578;-4.520;2023-05-07T00:13:23;100630.19;;;9.54;96.10
76632;BME280;65526;48.578;-4.520;2023-05-07T00:15:49;100699.91;;;9.53;96.02
76632;BME280;65526;48.578;-4.520;2023-05-07T00:18:15;101054.34;;;12.14;96.49
76632;BME280;65526;48.578;-4.520;2023-05-07T00:20:42;100805.06;;;10.60;96.29
76632;BME280;65526;48.578;-4.520;2023-05-07T00:23:09;101052.41;;;12.03;96.69
76632;BME280;65526;48.578;-4.520;2023-05-07T00:25:35;100817.09;;;10.28;96.37
76632;BME280;65526;48.578;-4.520;2023-05-07T00:28:01;100687.41;;;9.47;95.92
76632;BME280;65526;48.578;-4.520;2023-05-07T00:30:29;100901.19;;;10.98;96.35
76632;BME280;65526;48.578;-4.520;2023-05-07T00:32:56;100982.97;;;11.70;96.62
76632;BME280;65526;48.578;-4.520;2023-05-07T00:35:22;100939.31;;;11.22;96.11
76632;BME280;65526;48.578;-4.520;2023-05-07T00:37:49;101307.19;;;13.70;96.35
76632;BME280;65526;48.578;-4.520;2023-05-07T00:40:15;100949.38;;;11.26;96.17
76632;BME280;65526;48.578;-4.520;2023-05-07T00:42:42;101342.81;;;13.73;96.74
76632;BME280;65526;48.578;-4.520;2023-05-07T00:45:13;100657.22;;;9.45;95.78
76632;BME280;65526;48.578;-4.520;2023-05-07T00:47:40;100929.22;;;11.05;96.38
76632;BME280;65526;48.578;-4.520;2023-05-07T00:50:08;100865.28;;;10.81;96.37
76632;BME280;65526;48.578;-4.520;2023-05-07T00:52:36;101089.97;;;12.21;96.71
76632;BME280;65526;48.578;-4.520;2023-05-07T00:55:06;101098.38;;;12.09;96.42
76632;BME280;65526;48.578;-4.520;2023-05-07T00:57:41;101397.03;;;13.72;96.44
76632;BME280;65526;48.578;-4.520;2023-05-07T01:00:09;100855.56;;;10.50;96.11
76632;BME280;65526;48.578;-4.520;2023-05-07T01:02:36;100702.59;;;9.62;95.78
76632;BME280;65526;48.578;-4.520;2023-05-07T01:05:04;101076.72;;;11.90;96.12
76632;BME280;65526;48.578;-4.520;2023-05-07T01:07:32;101341.59;;;13.74;96.26
76632;BME280;65526;48.578;-4.520;2023-05-07T01:09:59;100991.81;;;11.23;96.12
76632;BME280;65526;48.578;-4.520;2023-05-07T01:12:27;101077.47;;;12.15;96.25
76632;BME280;65526;48.578;-4.520;2023-05-07T01:14:54;101166.72;;;12.30;96.38
76632;BME280;65526;48.578;-4.520;2023-05-07T01:17:21;100734.03;;;9.66;95.77
76632;BME280;65526;48.578;-4.520;2023-05-07T01:19:47;101018.47;;;11.85;96.21
76632;BME280;65526;48.578;-4.520;2023-05-07T01:22:15;101078.41;;;12.07;96.60
76632;BME280;65526;48.578;-4.520;2023-05-07T01:24:49;101026.34;;;11.71;96.39
76632;BME280;65526;48.578;-4.520;2023-05-07T01:27:16;100968.41;;;11.00;95.99
76632;BME280;65526;48.578;-4.520;2023-05-07T01:29:43;100985.44;;;11.23;96.13
76632;BME280;65526;48.578;-4.520;2023-05-07T01:32:09;100971.63;;;11.50;96.28
76632;BME280;65526;48.578;-4.520;2023-05-07T01:34:38;100566.88;;;8.87;95.84
76632;BME280;65526;48.578;-4.520;2023-05-07T01:37:05;100965.50;;;11.21;95.99
76632;BME280;65526;48.578;-4.520;2023-05-07T01:39:32;101345.22;;;13.75;96.43
76632;BME280;65526;48.578;-4.520;2023-05-07T01:41:59;100941.50;;;10.80;96.17
76632;BME280;65526;48.578;-4.520;2023-05-07T01:44:26;101040.50;;;11.53;96.21
76632;BME280;65526;48.578;-4.520;2023-05-07T01:46:53;101330.81;;;13.73;96.62
76632;BME280;65526;48.578;-4.520;2023-05-07T01:49:21;101376.31;;;13.73;96.85
76632;BME280;65526;48.578;-4.520;2023-05-07T01:51:47;100522.22;;;8.56;95.94
76632;BME280;65526;48.578;-4.520;2023-05-07T01:54:14;100937.94;;;11.16;96.41
76632;BME280;65526;48.578;-4.520;2023-05-07T01:56:40;101115.09;;;11.97;96.32
76632;BME280;65526;48.578;-4.520;2023-05-07T01:59:07;101116.16;;;12.04;96.33
76632;BME280;65526;48.578;-4.520;2023-05-07T02:01:34;101090.38;;;11.71;96.55
76632;BME280;65526;48.578;-4.520;2023-05-07T02:04:00;101173.34;;;12.14;96.68
76632;BME280;65526;48.578;-4.520;2023-05-07T02:06:29;101386.00;;;13.64;97.06
76632;BME280;65526;48.578;-4.520;2023-05-07T02:09:02;101407.88;;;13.62;96.86
76632;BME280;65526;48.578;-4.520;2023-05-07T02:11:28;101143.78;;;11.97;96.81
76632;BME280;65526;48.578;-4.520;2023-05-07T02:13:55;100765.19;;;9.50;96.42
76632;BME280;65526;48.578;-4.520;2023-05-07T02:16:21;101137.75;;;11.95;97.02
76632;BME280;65526;48.578;-4.520;2023-05-07T02:18:49;101333.66;;;13.21;97.03
76632;BME280;65526;48.578;-4.520;2023-05-07T02:21:15;101133.53;;;12.13;97.11
76632;BME280;65526;48.578;-4.520;2023-05-07T02:23:42;101108.59;;;11.56;97.39
76632;BME280;65526;48.578;-4.520;2023-05-07T02:26:10;100940.97;;;10.41;96.87
76632;BME280;65526;48.578;-4.520;2023-05-07T02:28:37;101355.25;;;13.36;97.30
76632;BME280;65526;48.578;-4.520;2023-05-07T02:31:05;101200.63;;;12.32;97.16
76632;BME280;65526;48.578;-4.520;2023-05-07T02:33:32;101132.19;;;11.83;96.82
76632;BME280;65526;48.578;-4.520;2023-05-07T02:36:09;100530.59;;;8.35;96.15
76632;BME280;65526;48.578;-4.520;2023-05-07T02:38:40;101121.28;;;11.78;97.66
76632;BME280;65526;48.578;-4.520;2023-05-07T02:41:06;100841.38;;;10.19;97.08
76632;BME280;65526;48.578;-4.520;2023-05-07T02:43:33;101418.06;;;13.42;97.60
76632;BME280;65526;48.578;-4.520;2023-05-07T02:46:06;100666.34;;;9.01;96.81
76632;BME280;65526;48.578;-4.520;2023-05-07T02:48:36;101168.38;;;11.83;97.21
76632;BME280;65526;48.578;-4.520;2023-05-07T02:51:03;100639.88;;;8.70;96.73
76632;BME280;65526;48.578;-4.520;2023-05-07T02:53:31;100904.41;;;10.51;97.01
76632;BME280;65526;48.578;-4.520;2023-05-07T02:55:59;100810.06;;;9.98;96.86
76632;BME280;65526;48.578;-4.520;2023-05-07T02:58:26;101083.06;;;11.66;97.15
76632;BME280;65526;48.578;-4.520;2023-05-07T03:00:53;101365.34;;;13.40;96.91
76632;BME280;65526;48.578;-4.520;2023-05-07T03:03:53;101465.09;;;13.28;97.04
76632;BME280;65526;48.578;-4.520;2023-05-07T03:06:20;101387.94;;;13.35;97.40
76632;BME280;65526;48.578;-4.520;2023-05-07T03:08:47;101075.88;;;11.41;96.95
76632;BME280;65526;48.578;-4.520;2023-05-07T03:11:13;100606.53;;;8.46;96.07
76632;BME280;65526;48.578;-4.520;2023-05-07T03:13:40;101116.31;;;11.38;96.96
76632;BME280;65526;48.578;-4.520;2023-05-07T03:16:07;100640.50;;;8.76;96.07
76632;BME280;65526;48.578;-4.520;2023-05-07T03:18:33;100918.69;;;10.62;96.63
76632;BME280;65526;48.578;-4.520;2023-05-07T03:21:00;101089.06;;;11.20;96.65
76632;BME280;65526;48.578;-4.520;2023-05-07T03:23:26;100968.47;;;10.67;96.40
76632;BME280;65526;48.578;-4.520;2023-05-07T03:25:52;101378.28;;;13.45;96.98
76632;BME280;65526;48.578;-4.520;2023-05-07T03:28:19;100792.22;;;9.74;95.92
76632;BME280;65526;48.578;-4.520;2023-05-07T03:30:54;100632.00;;;8.81;96.18
76632;BME280;65526;48.578;-4.520;2023-05-07T03:33:20;101121.16;;;11.74;96.77
76632;BME280;65526;48.578;-4.520;2023-05-07T03:35:47;101470.88;;;13.47;96.61
76632;BME280;65526;48.578;-4.520;2023-05-07T03:38:19;101073.19;;;11.20;96.55
76632;BME280;65526;48.578;-4.520;2023-05-07T03:40:46;100771.19;;;9.20;96.63
76632;BME280;65526;48.578;-4.520;2023-05-07T03:43:12;100919.09;;;10.52;96.69
76632;BME280;65526;48.578;-4.520;2023-05-07T03:45:43;100996.41;;;10.70;96.86
76632;BME280;65526;48.578;-4.520;2023-05-07T03:48:15;101446.81;;;13.42;97.22
76632;BME280;65526;48.578;-4.520;2023-05-07T03:50:42;101067.13;;;11.06;96.97
76632;BME280;65526;48.578;-4.520;2023-05-07T03:53:08;101049.28;;;10.95;96.98
76632;BME280;65526;48.578;-4.520;2023-05-07T03:55:38;100905.66;;;10.29;96.83
76632;BME280;65526;48.578;-4.520;2023-05-07T03:58:05;101200.16;;;11.82;97.06
76632;BME280;65526;48.578;-4.520;2023-05-07T04:00:31;101104.09;;;11.06;97.07
76632;BME280;65526;48.578;-4.520;2023-05-07T04:03:12;101418.56;;;12.95;97.00
76632;BME280;65526;48.578;-4.520;2023-05-07T04:05:38;101010.50;;;10.65;96.76
76632;BME280;65526;48.578;-4.520;2023-05-07T04:08:04;100621.47;;;8.54;96.31
76632;BME280;65526;48.578;-4.520;2023-05-07T04:10:37;101409.72;;;13.30;97.31
76632;BME280;65526;48.578;-4.520;2023-05-07T04:13:08;101499.75;;;13.27;97.45
76632;BME280;65526;48.578;-4.520;2023-05-07T04:15:36;101431.94;;;13.26;97.36
76632;BME280;65526;48.578;-4.520;2023-05-07T04:18:02;101062.19;;;10.79;96.69
76632;BME280;65526;48.578;-4.520;2023-05-07T04:20:29;101119.09;;;11.38;96.98
76632;BME280;65526;48.578;-4.520;2023-05-07T04:23:02;101156.84;;;11.60;96.81
76632;BME280;65526;48.578;-4.520;2023-05-07T04:25:29;100679.50;;;8.21;96.42
76632;BME280;65526;48.578;-4.520;2023-05-07T04:28:02;101154.75;;;11.57;96.91
76632;BME280;65526;48.578;-4.520;2023-05-07T04:30:30;101299.59;;;12.39;96.74
76632;BME280;65526;48.578;-4.520;2023-05-07T04:32:56;100882.00;;;9.90;96.36
76632;BME280;65526;48.578;-4.520;2023-05-07T04:35:25;101040.13;;;10.94;96.22
76632;BME280;65526;48.578;-4.520;2023-05-07T04:37:52;101471.47;;;13.28;96.64
76632;BME280;65526;48.578;-4.520;2023-05-07T04:40:19;101242.22;;;11.68;96.75
76632;BME280;65526;48.578;-4.520;2023-05-07T04:42:46;101437.53;;;13.26;97.01
76632;BME280;65526;48.578;-4.520;2023-05-07T04:45:13;101481.72;;;13.24;97.18
76632;BME280;65526;48.578;-4.520;2023-05-07T04:47:41;100967.44;;;10.26;96.65
76632;BME280;65526;48.578;-4.520;2023-05-07T04:50:08;100819.97;;;9.21;96.60
76632;BME280;65526;48.578;-4.520;2023-05-07T04:52:36;101516.97;;;13.17;97.07
76632;BME280;65526;48.578;-4.520;2023-05-07T04:55:03;101469.84;;;13.15;96.98
76632;BME280;65526;48.578;-4.520;2023-05-07T04:57:34;100776.47;;;8.92;96.59
76632;BME280;65526;48.578;-4.520;2023-05-07T05:00:01;101163.63;;;11.38;96.90
76632;BME280;65526;48.578;-4.520;2023-05-07T05:02:30;101458.25;;;13.13;97.23
76632;BME280;65526;48.578;-4.520;2023-05-07T05:04:57;101191.91;;;11.28;97.24
76632;BME280;65526;48.578;-4.520;2023-05-07T05:07:25;101253.81;;;11.58;97.05
76632;BME280;65526;48.578;-4.520;2023-05-07T05:09:51;100829.00;;;8.88;96.41
76632;BME280;65526;48.578;-4.520;2023-05-07T05:12:18;100950.94;;;9.88;96.87
76632;BME280;65526;48.578;-4.520;2023-05-07T05:14:45;101494.16;;;13.15;97.38
76632;BME280;65526;48.578;-4.520;2023-05-07T05:17:11;101005.59;;;10.17;97.26
76632;BME280;65526;48.578;-4.520;2023-05-07T05:19:38;100766.88;;;8.68;96.97
76632;BME280;65526;48.578;-4.520;2023-05-07T05:22:04;101179.13;;;11.15;97.14
76632;BME280;65526;48.578;-4.520;2023-05-07T05:24:31;101146.63;;;11.07;96.98
76632;BME280;65526;48.578;-4.520;2023-05-07T05:26:58;101209.22;;;11.34;97.00
76632;BME280;65526;48.578;-4.520;2023-05-07T05:29:28;101095.75;;;10.41;97.10
76632;BME280;65526;48.578;-4.520;2023-05-07T05:31:55;100575.38;;;7.57;96.28
76632;BME280;65526;48.578;-4.520;2023-05-07T05:34:21;101002.47;;;9.98;96.48
76632;BME280;65526;48.578;-4.520;2023-05-07T05:36:48;101474.19;;;13.13;97.04
76632;BME280;65526;48.578;-4.520;2023-05-07T05:39:17;101219.91;;;11.44;96.23
76632;BME280;65526;48.578;-4.520;2023-05-07T05:41:44;100995.13;;;10.14;95.68
76632;BME280;65526;48.578;-4.520;2023-05-07T05:44:12;101499.13;;;13.09;96.18
76632;BME280;65526;48.578;-4.520;2023-05-07T05:46:40;101523.91;;;13.10;96.27
76632;BME280;65526;48.578;-4.520;2023-05-07T05:49:06;100868.69;;;8.80;95.57
76632;BME280;65526;48.578;-4.520;2023-05-07T05:51:33;101484.84;;;13.10;96.21
76632;BME280;65526;48.578;-4.520;2023-05-07T05:54:00;101043.38;;;10.10;95.61
76632;BME280;65526;48.578;-4.520;2023-05-07T05:56:26;100742.09;;;8.43;95.38
76632;BME280;65526;48.578;-4.520;2023-05-07T05:58:53;100977.47;;;9.77;95.43
76632;BME280;65526;48.578;-4.520;2023-05-07T06:01:19;101190.03;;;11.20;95.49
76632;BME280;65526;48.578;-4.520;2023-05-07T06:03:48;101556.84;;;13.17;95.99
76632;BME280;65526;48.578;-4.520;2023-05-07T06:06:15;101486.19;;;12.68;95.60
76632;BME280;65526;48.578;-4.520;2023-05-07T06:08:43;101509.88;;;13.19;95.71
76632;BME280;65526;48.578;-4.520;2023-05-07T06:11:11;101250.47;;;11.32;95.60
76632;BME280;65526;48.578;-4.520;2023-05-07T06:13:40;101504.41;;;13.23;95.40
76632;BME280;65526;48.578;-4.520;2023-05-07T06:16:07;100890.28;;;8.95;95.13
76632;BME280;65526;48.578;-4.520;2023-05-07T06:18:34;101541.16;;;13.25;95.41
76632;BME280;65526;48.578;-4.520;2023-05-07T06:21:02;100832.69;;;8.71;95.05
76632;BME280;65526;48.578;-4.520;2023-05-07T06:23:32;101534.53;;;13.29;95.28
76632;BME280;65526;48.578;-4.520;2023-05-07T06:25:59;101566.41;;;13.28;95.31
76632;BME280;65526;48.578;-4.520;2023-05-07T06:28:31;101549.66;;;13.28;95.30
76632;BME280;65526;48.578;-4.520;2023-05-07T06:31:17;100799.13;;;8.94;94.26
76632;BME280;65526;48.578;-4.520;2023-05-07T06:34:00;101511.84;;;13.31;95.07
76632;BME280;65526;48.578;-4.520;2023-05-07T06:36:33;101558.25;;;13.35;95.26
76632;BME280;65526;48.578;-4.520;2023-05-07T06:39:05;101033.19;;;9.72;94.83
76632;BME280;65526;48.578;-4.520;2023-05-07T06:41:31;100963.50;;;9.44;94.44
76632;BME280;65526;48.578;-4.520;2023-05-07T06:44:05;101304.28;;;11.57;94.91
76632;BME280;65526;48.578;-4.520;2023-05-07T06:46:37;101562.22;;;13.34;94.97
76632;BME280;65526;48.578;-4.520;2023-05-07T06:49:05;101281.88;;;11.65;94.70
76632;BME280;65526;48.578;-4.520;2023-05-07T06:51:32;101165.34;;;10.65;94.56
76632;BME280;65526;48.578;-4.520;2023-05-07T06:54:02;101299.84;;;11.56;94.78
76632;BME280;65526;48.578;-4.520;2023-05-07T06:56:32;101550.22;;;13.34;95.07
76632;BME280;65526;48.578;-4.520;2023-05-07T06:59:00;100713.59;;;8.42;94.19
76632;BME280;65526;48.578;-4.520;2023-05-07T07:01:29;101211.88;;;11.30;94.59
76632;BME280;65526;48.578;-4.520;2023-05-07T07:03:56;101546.75;;;13.49;94.90
76632;BME280;65526;48.578;-4.520;2023-05-07T07:06:23;101061.34;;;10.33;94.19
76632;BME280;65526;48.578;-4.520;2023-05-07T07:08:49;100911.56;;;9.33;93.96
76632;BME280;65526;48.578;-4.520;2023-05-07T07:11:18;101149.56;;;11.10;94.46
76632;BME280;65526;48.578;-4.520;2023-05-07T07:13:44;101364.38;;;12.23;94.27
76632;BME280;65526;48.578;-4.520;2023-05-07T07:16:10;101144.44;;;11.12;94.10
76632;BME280;65526;48.578;-4.520;2023-05-07T07:18:37;100725.72;;;8.79;93.63
76632;BME280;65526;48.578;-4.520;2023-05-07T07:21:04;101164.00;;;11.37;93.67
76632;BME280;65526;48.578;-4.520;2023-05-07T07:23:31;101293.31;;;12.29;93.49
76632;BME280;65526;48.578;-4.520;2023-05-07T07:25:57;101040.38;;;10.56;92.88
76632;BME280;65526;48.578;-4.520;2023-05-07T07:28:24;100769.91;;;8.96;92.60
76632;BME280;65526;48.578;-4.520;2023-05-07T07:30:50;101586.50;;;14.07;93.75
76632;BME280;65526;48.578;-4.520;2023-05-07T07:33:17;100922.03;;;9.89;92.30
76632;BME280;65526;48.578;-4.520;2023-05-07T07:35:44;101572.63;;;14.10;93.08
76632;BME280;65526;48.578;-4.520;2023-05-07T07:38:10;101194.66;;;11.73;92.45
76632;BME280;65526;48.578;-4.520;2023-05-07T07:40:37;101110.25;;;11.12;92.57
76632;BME280;65526;48.578;-4.520;2023-05-07T07:43:05;101122.16;;;11.00;92.61
76632;BME280;65526;48.578;-4.520;2023-05-07T07:45:32;101636.44;;;14.20;92.84
76632;BME280;65526;48.578;-4.520;2023-05-07T07:48:00;101514.16;;;13.65;92.89
76632;BME280;65526;48.578;-4.520;2023-05-07T07:50:27;101216.63;;;11.75;92.57
76632;BME280;65526;48.578;-4.520;2023-05-07T07:52:54;101597.44;;;13.87;92.66
76632;BME280;65526;48.578;-4.520;2023-05-07T07:55:22;101254.97;;;12.02;92.50
76632;BME280;65526;48.578;-4.520;2023-05-07T07:57:51;101651.00;;;14.38;92.73
76632;BME280;65526;48.578;-4.520;2023-05-07T08:00:18;101092.56;;;11.17;92.42
76632;BME280;65526;48.578;-4.520;2023-05-07T08:02:48;101605.72;;;14.48;92.45
76632;BME280;65526;48.578;-4.520;2023-05-07T08:05:22;101195.53;;;11.86;91.91
76632;BME280;65526;48.578;-4.520;2023-05-07T08:07:49;101605.69;;;14.60;91.74
76632;BME280;65526;48.578;-4.520;2023-05-07T08:10:23;101671.22;;;14.59;91.49
76632;BME280;65526;48.578;-4.520;2023-05-07T08:12:55;101434.84;;;13.05;91.23
76632;BME280;65526;48.578;-4.520;2023-05-07T08:15:22;101450.78;;;13.17;91.51
76632;BME280;65526;48.578;-4.520;2023-05-07T08:17:50;101670.06;;;14.60;91.31
76632;BME280;65526;48.578;-4.520;2023-05-07T08:20:16;101689.41;;;14.53;90.68
76632;BME280;65526;48.578;-4.520;2023-05-07T08:22:43;101240.69;;;12.04;91.63
76632;BME280;65526;48.578;-4.520;2023-05-07T08:25:09;101260.06;;;11.88;91.38
76632;BME280;65526;48.578;-4.520;2023-05-07T08:27:36;101670.97;;;14.64;91.87
76632;BME280;65526;48.578;-4.520;2023-05-07T08:30:03;101633.28;;;14.74;91.67
76632;BME280;65526;48.578;-4.520;2023-05-07T08:32:30;101018.50;;;10.67;90.40
76632;BME280;65526;48.578;-4.520;2023-05-07T08:34:56;101643.88;;;14.81;90.34
76632;BME280;65526;48.578;-4.520;2023-05-07T08:37:23;101689.19;;;14.86;91.01
76632;BME280;65526;48.578;-4.520;2023-05-07T08:39:49;101123.44;;;11.72;89.93
76632;BME280;65526;48.578;-4.520;2023-05-07T08:42:23;101689.19;;;14.86;89.75
76632;BME280;65526;48.578;-4.520;2023-05-07T08:44:50;101639.50;;;14.68;91.29
76632;BME280;65526;48.578;-4.520;2023-05-07T08:47:22;101000.69;;;10.68;90.59
76632;BME280;65526;48.578;-4.520;2023-05-07T08:49:53;101390.56;;;12.92;90.17
76632;BME280;65526;48.578;-4.520;2023-05-07T08:52:21;101370.91;;;12.64;88.00
76632;BME280;65526;48.578;-4.520;2023-05-07T08:54:48;101717.00;;;14.67;89.97
76632;BME280;65526;48.578;-4.520;2023-05-07T08:57:15;101549.78;;;14.08;90.50
76632;BME280;65526;48.578;-4.520;2023-05-07T08:59:41;101178.81;;;11.86;88.89
76632;BME280;65526;48.578;-4.520;2023-05-07T09:02:10;101421.56;;;13.39;89.64
76632;BME280;65526;48.578;-4.520;2023-05-07T09:04:38;101718.13;;;14.78;88.64
76632;BME280;65526;48.578;-4.520;2023-05-07T09:07:05;101183.56;;;11.28;88.61
76632;BME280;65526;48.578;-4.520;2023-05-07T09:09:34;101691.66;;;14.76;89.82
76632;BME280;65526;48.578;-4.520;2023-05-07T09:12:02;101196.00;;;12.00;88.84
76632;BME280;65526;48.578;-4.520;2023-05-07T09:14:32;101442.75;;;13.40;89.19
76632;BME280;65526;48.578;-4.520;2023-05-07T09:17:00;101649.47;;;14.81;88.35
76632;BME280;65526;48.578;-4.520;2023-05-07T09:19:27;101654.28;;;14.96;88.76
76632;BME280;65526;48.578;-4.520;2023-05-07T09:22:03;100917.13;;;10.40;88.40
76632;BME280;65526;48.578;-4.520;2023-05-07T09:24:37;101356.94;;;12.88;89.33
76632;BME280;65526;48.578;-4.520;2023-05-07T09:27:07;101666.06;;;15.17;89.50
76632;BME280;65526;48.578;-4.520;2023-05-07T09:29:34;101267.50;;;12.69;88.14
76632;BME280;65526;48.578;-4.520;2023-05-07T09:32:07;101654.66;;;15.10;88.19
76632;BME280;65526;48.578;-4.520;2023-05-07T09:34:35;101292.44;;;12.90;87.87
76632;BME280;65526;48.578;-4.520;2023-05-07T09:37:03;101270.94;;;12.90;87.50
76632;BME280;65526;48.578;-4.520;2023-05-07T09:39:46;101047.34;;;11.56;87.45
76632;BME280;65526;48.578;-4.520;2023-05-07T09:42:15;101691.00;;;15.66;87.41
76632;BME280;65526;48.578;-4.520;2023-05-07T09:44:43;101281.72;;;13.04;87.19
76632;BME280;65526;48.578;-4.520;2023-05-07T09:47:19;101422.41;;;13.79;86.83
76632;BME280;65526;48.578;-4.520;2023-05-07T09:49:48;101494.53;;;13.89;87.67
76632;BME280;65526;48.578;-4.520;2023-05-07T09:52:18;101700.94;;;15.63;87.46
76632;BME280;65526;48.578;-4.520;2023-05-07T09:54:50;101332.06;;;13.20;86.71
76632;BME280;65526;48.578;-4.520;2023-05-07T09:57:20;101765.63;;;15.86;86.78
76632;BME280;65526;48.578;-4.520;2023-05-07T09:59:52;101290.91;;;13.44;86.93
76632;BME280;65526;48.578;-4.520;2023-05-07T10:02:20;101429.13;;;14.34;86.92
76632;BME280;65526;48.578;-4.520;2023-05-07T10:04:50;101709.78;;;16.12;86.47
76632;BME280;65526;48.578;-4.520;2023-05-07T10:07:23;101420.91;;;14.25;85.43
76632;BME280;65526;48.578;-4.520;2023-05-07T10:09:54;101529.19;;;14.84;85.42
76632;BME280;65526;48.578;-4.520;2023-05-07T10:12:30;101764.72;;;16.13;85.65
76632;BME280;65526;48.578;-4.520;2023-05-07T10:15:09;101260.59;;;13.31;85.03
76632;BME280;65526;48.578;-4.520;2023-05-07T10:17:39;101379.88;;;14.02;85.88
76632;BME280;65526;48.578;-4.520;2023-05-07T10:20:07;101413.00;;;14.43;85.99
76632;BME280;65526;48.578;-4.520;2023-05-07T10:22:38;101458.50;;;14.28;84.13
76632;BME280;65526;48.578;-4.520;2023-05-07T10:25:14;101192.22;;;12.57;84.97
76632;BME280;65526;48.578;-4.520;2023-05-07T10:27:43;101280.66;;;13.08;85.28
76632;BME280;65526;48.578;-4.520;2023-05-07T10:33:05;101555.47;;;14.80;85.43
76632;BME280;65526;48.578;-4.520;2023-05-07T10:35:40;101068.97;;;12.23;84.96
76632;BME280;65526;48.578;-4.520;2023-05-07T10:38:08;101754.31;;;16.30;85.92
76632;BME280;65526;48.578;-4.520;2023-05-07T10:40:37;101501.31;;;14.88;85.04
76632;BME280;65526;48.578;-4.520;2023-05-07T10:43:04;101555.31;;;15.04;83.37
76632;BME280;65526;48.578;-4.520;2023-05-07T10:45:37;101255.69;;;13.56;84.48
76632;BME280;65526;48.578;-4.520;2023-05-07T10:48:09;101738.88;;;16.55;84.69
76632;BME280;65526;48.578;-4.520;2023-05-07T10:50:37;101350.97;;;13.66;83.58
76632;BME280;65526;48.578;-4.520;2023-05-07T11:04:45;101761.72;;;16.22;84.42
76632;BME280;65526;48.578;-4.520;2023-05-07T11:07:28;101301.53;;;13.39;84.91
76632;BME280;65526;48.578;-4.520;2023-05-07T11:10:03;101449.59;;;14.66;84.76
76632;BME280;65526;48.578;-4.520;2023-05-07T11:15:34;101742.59;;;16.43;85.55
76632;BME280;65526;48.578;-4.520;2023-05-07T11:18:03;101127.97;;;12.53;84.39
76632;BME280;65526;48.578;-4.520;2023-05-07T11:20:55;101727.84;;;16.62;84.85
76632;BME280;65526;48.578;-4.520;2023-05-07T11:26:27;101734.88;;;16.56;85.59
76632;BME280;65526;48.578;-4.520;2023-05-07T11:28:54;101551.09;;;15.26;85.18
76632;BME280;65526;48.578;-4.520;2023-05-07T11:31:24;101511.97;;;14.98;84.00
76632;BME280;65526;48.578;-4.520;2023-05-07T11:33:53;101364.13;;;14.09;83.19
76632;BME280;65526;48.578;-4.520;2023-05-07T11:36:22;100969.75;;;12.07;82.45
76632;BME280;65526;48.578;-4.520;2023-05-07T11:38:51;101018.63;;;12.44;83.07
76632;BME280;65526;48.578;-4.520;2023-05-07T11:41:18;101584.41;;;15.78;83.28
76632;BME280;65526;48.578;-4.520;2023-05-07T11:43:59;101497.59;;;15.31;83.72
76632;BME280;65526;48.578;-4.520;2023-05-07T11:46:27;101754.50;;;16.72;84.07
76632;BME280;65526;48.578;-4.520;2023-05-07T11:48:54;101502.03;;;15.16;83.99
76632;BME280;65526;48.578;-4.520;2023-05-07T11:51:23;101353.53;;;14.31;82.95
76632;BME280;65526;48.578;-4.520;2023-05-07T11:53:50;101766.75;;;16.63;83.67
76632;BME280;65526;48.578;-4.520;2023-05-07T11:56:17;101305.53;;;13.97;84.10
76632;BME280;65526;48.578;-4.520;2023-05-07T11:58:45;101346.22;;;14.26;84.04
76632;BME280;65526;48.578;-4.520;2023-05-07T12:01:13;101487.41;;;15.07;83.39
76632;BME280;65526;48.578;-4.520;2023-05-07T12:03:41;101815.72;;;16.82;84.18
76632;BME280;65526;48.578;-4.520;2023-05-07T12:06:16;101154.44;;;12.99;82.99
76632;BME280;65526;48.578;-4.520;2023-05-07T12:08:44;101269.09;;;13.78;83.33
76632;BME280;65526;48.578;-4.520;2023-05-07T12:11:37;101506.63;;;15.24;82.87
76632;BME280;65526;48.578;-4.520;2023-05-07T12:14:05;101205.25;;;12.93;82.83
76632;BME280;65526;48.578;-4.520;2023-05-07T12:16:32;101518.91;;;15.04;83.76
76632;BME280;65526;48.578;-4.520;2023-05-07T12:18:59;101239.56;;;13.49;83.73
76632;BME280;65526;48.578;-4.520;2023-05-07T12:21:26;101340.97;;;14.09;83.05
76632;BME280;65526;48.578;-4.520;2023-05-07T12:23:52;101779.56;;;16.80;82.47
76632;BME280;65526;48.578;-4.520;2023-05-07T12:26:19;101398.44;;;13.94;83.05
76632;BME280;65526;48.578;-4.520;2023-05-07T12:28:50;101418.63;;;14.59;83.47
76632;BME280;65526;48.578;-4.520;2023-05-07T12:31:16;101281.09;;;13.23;82.58
76632;BME280;65526;48.578;-4.520;2023-05-07T12:33:43;101494.88;;;15.03;83.35
76632;BME280;65526;48.578;-4.520;2023-05-07T12:36:12;101857.72;;;16.94;83.41
76632;BME280;65526;48.578;-4.520;2023-05-07T12:38:39;101654.56;;;15.66;83.85
76632;BME280;65526;48.578;-4.520;2023-05-07T12:41:09;101843.72;;;16.97;82.23
76632;BME280;65526;48.578;-4.520;2023-05-07T12:43:36;101457.00;;;14.74;82.17
76632;BME280;65526;48.578;-4.520;2023-05-07T12:46:06;101105.72;;;12.41;81.42
76632;BME280;65526;48.578;-4.520;2023-05-07T12:48:35;101349.16;;;14.02;81.52
76632;BME280;65526;48.578;-4.520;2023-05-07T12:51:02;101504.88;;;14.57;81.35
76632;BME280;65526;48.578;-4.520;2023-05-07T12:53:29;101607.16;;;14.98;83.06
76632;BME280;65526;48.578;-4.520;2023-05-07T12:55:58;101505.22;;;14.40;83.27
76632;BME280;65526;48.578;-4.520;2023-05-07T12:58:27;101119.50;;;12.10;83.36
76632;BME280;65526;48.578;-4.520;2023-05-07T13:00:55;101229.75;;;12.47;83.99
76632;BME280;65526;48.578;-4.520;2023-05-07T13:03:28;101365.28;;;13.65;83.93
76632;BME280;65526;48.578;-4.520;2023-05-07T13:06:01;100947.66;;;11.22;83.83
76632;BME280;65526;48.578;-4.520;2023-05-07T13:08:31;101603.75;;;15.20;84.48